Time,TemperatureF,DewpointF,PressureIn,WindDirection,WindDirectionDegrees,WindSpeedMPH,WindSpeedGustMPH,Humidity,HourlyPrecipIn,Conditions,Clouds,dailyrainin,SolarRadiationWatts/m^2,SoftwareType,DateUTC
2013-04-01 00:02:00,26.0,22.0,-100.00,North,355,4.0,10.0,83,0.00,,,0.00,0.000000,,2013-04-01 05:02:00,
2013-04-01 00:11:00,24.0,20.0,-100.00,North,4,6.0,10.0,83,0.00,,,0.00,0.000000,,2013-04-01 05:11:00,
2013-04-01 00:33:00,24.0,20.0,-100.00,North,4,6.0,10.0,83,0.00,,,0.00,0.000000,,2013-04-01 05:33:00,
2013-04-01 00:43:00,24.0,20.0,-100.00,North,4,6.0,10.0,83,0.00,,,0.00,0.000000,,2013-04-01 05:43:00,
2013-04-01 00:53:00,24.0,20.0,-100.00,North,4,6.0,10.0,83,0.00,,,0.00,0.000000,,2013-04-01 05:53:00,
2013-04-01 01:02:00,24.0,20.0,-100.00,North,4,6.0,10.0,83,0.00,,,0.00,0.000000,,2013-04-01 06:02:00,
2013-04-01 01:11:00,22.0,18.0,-100.00,North,2,4.0,10.0,84,0.00,,,0.00,0.000000,,2013-04-01 06:11:00,
2013-04-01 01:34:00,22.0,18.0,-100.00,North,2,4.0,10.0,84,0.00,,,0.00,0.000000,,2013-04-01 06:34:00,
2013-04-01 01:43:00,22.0,18.0,-100.00,North,2,4.0,10.0,84,0.00,,,0.00,0.000000,,2013-04-01 06:43:00,
2013-04-01 01:53:00,22.0,18.0,-100.00,North,2,4.0,10.0,84,0.00,,,0.00,0.000000,,2013-04-01 06:53:00,
2013-04-01 02:02:00,22.0,18.0,-100.00,North,2,4.0,10.0,84,0.00,,,0.00,0.000000,,2013-04-01 07:02:00,
2013-04-01 02:11:00,21.0,17.0,-100.00,North,10,6.0,8.0,83,0.00,,,-99.99,0.000000,,2013-04-01 07:11:00,
2013-04-01 02:32:00,21.0,17.0,-100.00,North,10,6.0,8.0,83,0.00,,,-99.99,0.000000,,2013-04-01 07:32:00,
2013-04-01 02:43:00,21.0,17.0,-100.00,North,10,6.0,8.0,83,0.00,,,-99.99,0.000000,,2013-04-01 07:43:00,
2013-04-01 02:53:00,21.0,17.0,-100.00,North,10,6.0,8.0,83,0.00,,,-99.99,0.000000,,2013-04-01 07:53:00,
2013-04-01 03:03:00,21.0,17.0,-100.00,North,10,6.0,8.0,83,0.00,,,-99.99,0.000000,,2013-04-01 08:03:00,
2013-04-01 03:11:00,19.0,16.0,-100.00,North,358,3.0,9.0,86,0.00,,,0.00,0.000000,,2013-04-01 08:11:00,
2013-04-01 03:32:00,19.0,16.0,-100.00,North,358,3.0,9.0,86,0.00,,,0.00,0.000000,,2013-04-01 08:32:00,
2013-04-01 03:43:00,19.0,16.0,-100.00,North,358,3.0,9.0,86,0.00,,,0.00,0.000000,,2013-04-01 08:43:00,
2013-04-01 03:53:00,19.0,16.0,-100.00,North,358,3.0,9.0,86,0.00,,,0.00,0.000000,,2013-04-01 08:53:00,
2013-04-01 04:02:00,19.0,16.0,-100.00,North,358,3.0,9.0,86,0.00,,,0.00,0.000000,,2013-04-01 09:02:00,
2013-04-01 04:11:00,17.0,15.0,-100.00,NNW,338,3.0,5.0,93,0.00,,,0.00,0.000000,,2013-04-01 09:11:00,
2013-04-01 04:43:00,17.0,15.0,-100.00,NNW,338,3.0,5.0,93,0.00,,,0.00,0.000000,,2013-04-01 09:43:00,
2013-04-01 04:53:00,17.0,15.0,-100.00,NNW,338,3.0,5.0,93,0.00,,,0.00,0.000000,,2013-04-01 09:53:00,
2013-04-01 05:03:00,17.0,15.0,-100.00,NNW,338,3.0,5.0,93,0.00,,,0.00,0.000000,,2013-04-01 10:03:00,
2013-04-01 05:11:00,15.0,14.0,-100.00,NW,314,2.0,5.0,94,0.00,,,0.00,0.000000,,2013-04-01 10:11:00,
2013-04-01 05:34:00,15.0,14.0,-100.00,NW,314,2.0,5.0,94,0.00,,,0.00,0.000000,,2013-04-01 10:34:00,
2013-04-01 05:43:00,15.0,14.0,-100.00,NW,314,2.0,5.0,94,0.00,,,0.00,0.000000,,2013-04-01 10:43:00,
2013-04-01 05:53:00,15.0,14.0,-100.00,NW,314,2.0,5.0,94,0.00,,,0.00,0.000000,,2013-04-01 10:53:00,
2013-04-01 06:03:00,15.0,14.0,-100.00,NW,314,2.0,5.0,94,0.00,,,0.00,0.000000,,2013-04-01 11:03:00,
2013-04-01 06:11:00,15.0,14.0,-100.00,NW,310,6.0,9.0,94,0.00,,,0.00,0.000000,,2013-04-01 11:11:00,
2013-04-01 06:33:00,15.0,14.0,-100.00,NW,310,6.0,9.0,94,0.00,,,0.00,0.000000,,2013-04-01 11:33:00,
2013-04-01 06:43:00,15.0,14.0,-100.00,NW,310,6.0,9.0,94,0.00,,,0.00,0.000000,,2013-04-01 11:43:00,
2013-04-01 06:53:00,15.0,14.0,-100.00,NW,310,6.0,9.0,94,0.00,,,0.00,0.000000,,2013-04-01 11:53:00,
2013-04-01 07:02:00,15.0,14.0,-100.00,NW,310,6.0,9.0,94,0.00,,,0.00,0.000000,,2013-04-01 12:02:00,
2013-04-01 07:11:00,14.0,13.0,-100.00,NNW,335,4.0,7.0,96,0.00,,,-99.99,1.000000,,2013-04-01 12:11:00,
2013-04-01 07:43:00,14.0,13.0,-100.00,NNW,335,4.0,7.0,96,0.00,,,-99.99,1.000000,,2013-04-01 12:43:00,
2013-04-01 07:53:00,14.0,13.0,-100.00,NNW,335,4.0,7.0,96,0.00,,,-99.99,1.000000,,2013-04-01 12:53:00,
2013-04-01 08:03:00,14.0,13.0,-100.00,NNW,335,4.0,7.0,96,0.00,,,-99.99,1.000000,,2013-04-01 13:03:00,
2013-04-01 08:11:00,15.0,13.0,-100.00,NNW,335,4.0,7.0,93,0.00,,,-99.99,16.000000,,2013-04-01 13:11:00,
2013-04-01 08:43:00,15.0,13.0,-100.00,NNW,335,4.0,7.0,93,0.00,,,-99.99,16.000000,,2013-04-01 13:43:00,
2013-04-01 08:53:00,15.0,13.0,-100.00,NNW,335,4.0,7.0,93,0.00,,,-99.99,16.000000,,2013-04-01 13:53:00,
2013-04-01 09:03:00,15.0,13.0,-100.00,NNW,335,4.0,7.0,93,0.00,,,-99.99,16.000000,,2013-04-01 14:03:00,
2013-04-01 09:11:00,24.0,17.0,-100.00,North,349,7.0,11.0,73,0.00,,,0.00,186.000000,,2013-04-01 14:11:00,
2013-04-01 09:43:00,24.0,17.0,-100.00,North,349,7.0,11.0,73,0.00,,,0.00,186.000000,,2013-04-01 14:43:00,
2013-04-01 09:53:00,24.0,17.0,-100.00,North,349,7.0,11.0,73,0.00,,,0.00,186.000000,,2013-04-01 14:53:00,
2013-04-01 10:03:00,24.0,17.0,-100.00,North,349,7.0,11.0,73,0.00,,,0.00,186.000000,,2013-04-01 15:03:00,
2013-04-01 10:11:00,26.0,16.0,-100.00,North,2,9.0,14.0,64,0.00,,,0.00,352.000000,,2013-04-01 15:11:00,
2013-04-01 10:43:00,26.0,16.0,-100.00,North,2,9.0,14.0,64,0.00,,,0.00,352.000000,,2013-04-01 15:43:00,
2013-04-01 10:54:00,26.0,16.0,-100.00,North,2,9.0,14.0,64,0.00,,,0.00,352.000000,,2013-04-01 15:54:00,
2013-04-01 11:03:00,26.0,16.0,-100.00,North,2,9.0,14.0,64,0.00,,,0.00,352.000000,,2013-04-01 16:03:00,
2013-04-01 12:11:00,30.0,19.0,-100.00,NNW,329,9.0,15.0,62,-99.99,,,0.01,641.000000,,2013-04-01 17:11:00,
2013-04-01 12:32:00,30.0,19.0,-100.00,NNW,329,9.0,15.0,62,-99.99,,,0.01,641.000000,,2013-04-01 17:32:00,
2013-04-01 12:42:00,30.0,19.0,-100.00,NNW,329,9.0,15.0,62,-99.99,,,0.01,641.000000,,2013-04-01 17:42:00,
2013-04-01 12:53:00,30.0,19.0,-100.00,NNW,329,9.0,15.0,62,-99.99,,,0.01,641.000000,,2013-04-01 17:53:00,
2013-04-01 13:02:00,30.0,19.0,-100.00,NNW,329,9.0,15.0,62,-99.99,,,0.01,641.000000,,2013-04-01 18:02:00,
2013-04-01 13:11:00,34.0,21.0,-100.00,NNW,342,7.0,16.0,58,0.00,,,0.01,733.000000,,2013-04-01 18:11:00,
2013-04-01 13:43:00,34.0,21.0,-100.00,NNW,342,7.0,16.0,58,0.00,,,0.01,733.000000,,2013-04-01 18:43:00,
2013-04-01 13:53:00,34.0,21.0,-100.00,NNW,342,7.0,16.0,58,0.00,,,0.01,733.000000,,2013-04-01 18:53:00,
2013-04-01 14:03:00,34.0,21.0,-100.00,NNW,342,7.0,16.0,58,0.00,,,0.01,733.000000,,2013-04-01 19:03:00,
2013-04-01 14:11:00,36.0,20.0,-100.00,NNW,339,7.0,19.0,52,0.00,,,0.01,742.000000,,2013-04-01 19:11:00,
2013-04-01 14:43:00,36.0,20.0,-100.00,NNW,339,7.0,19.0,52,0.00,,,0.01,742.000000,,2013-04-01 19:43:00,
2013-04-01 14:53:00,36.0,20.0,-100.00,NNW,339,7.0,19.0,52,0.00,,,0.01,742.000000,,2013-04-01 19:53:00,
2013-04-01 15:02:00,36.0,20.0,-100.00,NNW,339,7.0,19.0,52,0.00,,,0.01,742.000000,,2013-04-01 20:02:00,
2013-04-01 15:11:00,39.0,17.0,-100.00,NW,322,7.0,15.0,40,0.00,,,0.01,753.000000,,2013-04-01 20:11:00,
2013-04-01 15:43:00,39.0,17.0,-100.00,NW,322,7.0,15.0,40,0.00,,,0.01,753.000000,,2013-04-01 20:43:00,
2013-04-01 15:52:00,39.0,17.0,-100.00,NW,322,7.0,15.0,40,0.00,,,0.01,753.000000,,2013-04-01 20:52:00,
2013-04-01 16:02:00,39.0,17.0,-100.00,NW,322,7.0,15.0,40,0.00,,,0.01,753.000000,,2013-04-01 21:02:00,
2013-04-01 16:11:00,40.0,17.0,-100.00,NNW,338,7.0,16.0,39,0.00,,,0.01,643.000000,,2013-04-01 21:11:00,
2013-04-01 16:44:00,40.0,17.0,-100.00,NNW,338,7.0,16.0,39,0.00,,,0.01,643.000000,,2013-04-01 21:44:00,
2013-04-01 16:53:00,40.0,17.0,-100.00,NNW,338,7.0,16.0,39,0.00,,,0.01,643.000000,,2013-04-01 21:53:00,
2013-04-01 17:02:00,40.0,17.0,-100.00,NNW,338,7.0,16.0,39,0.00,,,0.01,643.000000,,2013-04-01 22:02:00,
2013-04-01 17:11:00,40.0,15.0,-100.00,WNW,293,9.0,13.0,35,0.00,,,0.01,540.000000,,2013-04-01 22:11:00,
2013-04-01 17:33:00,40.0,15.0,-100.00,WNW,293,9.0,13.0,35,0.00,,,0.01,540.000000,,2013-04-01 22:33:00,
2013-04-01 17:43:00,40.0,15.0,-100.00,WNW,293,9.0,13.0,35,0.00,,,0.01,540.000000,,2013-04-01 22:43:00,
2013-04-01 17:52:00,40.0,15.0,-100.00,WNW,293,9.0,13.0,35,0.00,,,0.01,540.000000,,2013-04-01 22:52:00,
2013-04-01 18:02:00,40.0,15.0,-100.00,WNW,293,9.0,13.0,35,0.00,,,0.01,540.000000,,2013-04-01 23:02:00,
2013-04-01 18:11:00,41.0,13.0,-100.00,North,351,7.0,14.0,32,0.00,,,0.01,397.000000,,2013-04-01 23:11:00,
2013-04-01 18:43:00,41.0,13.0,-100.00,North,351,7.0,14.0,32,0.00,,,0.01,397.000000,,2013-04-01 23:43:00,
2013-04-01 18:53:00,41.0,13.0,-100.00,North,351,7.0,14.0,32,0.00,,,0.01,397.000000,,2013-04-01 23:53:00,
2013-04-01 19:03:00,41.0,13.0,-100.00,North,351,7.0,14.0,32,0.00,,,0.01,397.000000,,2013-04-02 00:03:00,
2013-04-01 19:11:00,40.0,13.0,-100.00,NNW,339,5.0,13.0,33,0.00,,,0.01,216.000000,,2013-04-02 00:11:00,
2013-04-01 19:33:00,40.0,13.0,-100.00,NNW,339,5.0,13.0,33,0.00,,,0.01,216.000000,,2013-04-02 00:33:00,
2013-04-01 19:43:00,40.0,13.0,-100.00,NNW,339,5.0,13.0,33,0.00,,,0.01,216.000000,,2013-04-02 00:43:00,
2013-04-01 19:53:00,40.0,13.0,-100.00,NNW,339,5.0,13.0,33,0.00,,,0.01,216.000000,,2013-04-02 00:53:00,
2013-04-01 20:02:00,40.0,13.0,-100.00,NNW,339,5.0,13.0,33,0.00,,,0.01,216.000000,,2013-04-02 01:02:00,
2013-04-01 20:11:00,31.0,16.0,-100.00,NNW,346,3.0,6.0,54,0.00,,,0.01,39.000000,,2013-04-02 01:11:00,
2013-04-01 20:32:00,31.0,16.0,-100.00,NNW,346,3.0,6.0,54,0.00,,,0.01,39.000000,,2013-04-02 01:32:00,
2013-04-01 20:43:00,31.0,16.0,-100.00,NNW,346,3.0,6.0,54,0.00,,,0.01,39.000000,,2013-04-02 01:43:00,
2013-04-01 20:53:00,31.0,16.0,-100.00,NNW,346,3.0,6.0,54,0.00,,,0.01,39.000000,,2013-04-02 01:53:00,
2013-04-01 21:02:00,31.0,16.0,-100.00,NNW,346,3.0,6.0,54,0.00,,,0.01,39.000000,,2013-04-02 02:02:00,
2013-04-01 21:11:00,27.0,15.0,-100.00,NNW,343,4.0,5.0,61,0.00,,,0.01,0.000000,,2013-04-02 02:11:00,
2013-04-01 21:43:00,27.0,15.0,-100.00,NNW,343,4.0,5.0,61,0.00,,,0.01,0.000000,,2013-04-02 02:43:00,
2013-04-01 21:53:00,27.0,15.0,-100.00,NNW,343,4.0,5.0,61,0.00,,,0.01,0.000000,,2013-04-02 02:53:00,
2013-04-01 22:02:00,27.0,15.0,-100.00,NNW,343,4.0,5.0,61,0.00,,,0.01,0.000000,,2013-04-02 03:02:00,
2013-04-01 22:11:00,28.0,15.0,-100.00,NNE,13,5.0,7.0,57,0.00,,,0.01,0.000000,,2013-04-02 03:11:00,
2013-04-01 22:33:00,28.0,15.0,-100.00,NNE,13,5.0,7.0,57,0.00,,,0.01,0.000000,,2013-04-02 03:33:00,
2013-04-01 22:43:00,28.0,15.0,-100.00,NNE,13,5.0,7.0,57,0.00,,,0.01,0.000000,,2013-04-02 03:43:00,
2013-04-01 22:53:00,28.0,15.0,-100.00,NNE,13,5.0,7.0,57,0.00,,,0.01,0.000000,,2013-04-02 03:53:00,
2013-04-01 23:03:00,28.0,15.0,-100.00,NNE,13,5.0,7.0,57,0.00,,,0.01,0.000000,,2013-04-02 04:03:00,
2013-04-01 23:11:00,31.0,15.0,-100.00,NE,35,6.0,10.0,50,0.00,,,0.01,0.000000,,2013-04-02 04:11:00,
2013-04-01 23:43:00,31.0,15.0,-100.00,NE,35,6.0,10.0,50,0.00,,,0.01,0.000000,,2013-04-02 04:43:00,
2013-04-01 23:53:00,31.0,15.0,-100.00,NE,35,6.0,10.0,50,0.00,,,0.01,0.000000,,2013-04-02 04:53:00,